createdAt,value
2022-12-11T00:01:01.384Z,946.41
2022-12-11T00:02:03.433Z,946.38
2022-12-11T00:03:05.441Z,946.4
2022-12-11T00:04:07.436Z,946.46
2022-12-11T00:05:09.795Z,946.44
2022-12-11T00:06:11.368Z,946.42
2022-12-11T00:07:13.389Z,946.44
2022-12-11T00:08:16.451Z,946.45
2022-12-11T00:09:19.374Z,946.42
2022-12-11T00:10:21.392Z,946.43
2022-12-11T00:11:23.375Z,946.41
2022-12-11T00:12:25.378Z,946.43
2022-12-11T00:13:28.380Z,946.4
2022-12-11T00:14:30.386Z,946.36
2022-12-11T00:15:32.392Z,946.36
2022-12-11T00:16:34.429Z,946.37
2022-12-11T00:17:36.380Z,946.36
2022-12-11T00:18:38.414Z,946.35
2022-12-11T00:19:40.583Z,946.36
2022-12-11T00:20:42.403Z,946.36
2022-12-11T00:21:44.393Z,946.34
2022-12-11T00:22:47.373Z,946.33
2022-12-11T00:23:49.408Z,946.32
2022-12-11T00:24:51.429Z,946.3
2022-12-11T00:25:53.393Z,946.32
2022-12-11T00:26:55.380Z,946.27
2022-12-11T00:27:57.389Z,946.31
2022-12-11T00:28:59.384Z,946.32
2022-12-11T00:30:01.406Z,946.27
2022-12-11T00:31:03.395Z,946.27
2022-12-11T00:32:05.426Z,946.29
2022-12-11T00:33:07.420Z,946.26
2022-12-11T00:34:09.393Z,946.26
2022-12-11T00:35:11.631Z,946.28
2022-12-11T00:36:13.384Z,946.27
2022-12-11T00:37:16.472Z,946.28
2022-12-11T00:38:19.391Z,946.27
2022-12-11T00:39:21.396Z,946.31
2022-12-11T00:40:23.422Z,946.27
2022-12-11T00:41:25.395Z,946.29
2022-12-11T00:42:27.390Z,946.28
2022-12-11T00:43:29.393Z,946.28
2022-12-11T00:44:31.395Z,946.24
2022-12-11T00:45:33.463Z,946.25
2022-12-11T00:46:35.397Z,946.25
2022-12-11T00:47:37.401Z,946.27
2022-12-11T00:48:39.389Z,946.29
2022-12-11T00:49:46.499Z,946.31
2022-12-11T00:50:44.406Z,946.28
2022-12-11T00:51:46.395Z,946.3
2022-12-11T00:52:48.427Z,946.28
2022-12-11T00:53:50.408Z,946.27
2022-12-11T00:54:52.406Z,946.26
2022-12-11T00:55:54.432Z,946.26
2022-12-11T00:56:56.396Z,946.27
2022-12-11T00:57:58.408Z,946.29
2022-12-11T00:59:00.401Z,946.31
2022-12-11T01:00:03.401Z,946.28
2022-12-11T01:01:05.521Z,946.35
2022-12-11T01:02:07.439Z,946.33
2022-12-11T01:03:09.494Z,946.38
2022-12-11T01:04:11.420Z,946.35
2022-12-11T01:05:13.609Z,946.38
2022-12-11T01:06:16.424Z,946.41
2022-12-11T01:07:20.447Z,946.48
2022-12-11T01:08:22.564Z,946.46
2022-12-11T01:09:24.410Z,946.45
2022-12-11T01:10:26.506Z,946.48
2022-12-11T01:11:28.409Z,946.5
2022-12-11T01:12:30.421Z,946.48
2022-12-11T01:13:32.410Z,946.51
2022-12-11T01:14:34.419Z,946.48
2022-12-11T01:15:41.102Z,946.5
2022-12-11T01:16:38.482Z,946.52
2022-12-11T01:17:40.420Z,946.51
2022-12-11T01:18:42.415Z,946.54
2022-12-11T01:19:44.429Z,946.5
2022-12-11T01:20:46.409Z,946.55
2022-12-11T01:21:48.417Z,946.55
2022-12-11T01:22:50.420Z,946.54
2022-12-11T01:23:52.437Z,946.57
2022-12-11T01:24:54.413Z,946.58
2022-12-11T01:25:56.418Z,946.6
2022-12-11T01:26:58.416Z,946.61
2022-12-11T01:28:00.445Z,946.58
2022-12-11T01:29:02.416Z,946.6
2022-12-11T01:30:04.426Z,946.59
2022-12-11T01:31:06.499Z,946.58
2022-12-11T01:32:08.422Z,946.59
2022-12-11T01:33:10.434Z,946.55
2022-12-11T01:34:12.413Z,946.57
2022-12-11T01:35:14.420Z,946.61
2022-12-11T01:36:16.429Z,946.6
2022-12-11T01:37:20.421Z,946.57
2022-12-11T01:38:22.439Z,946.56
2022-12-11T01:39:24.445Z,946.59
2022-12-11T01:40:27.422Z,946.56
2022-12-11T01:41:29.420Z,946.56
2022-12-11T01:42:31.444Z,946.58
2022-12-11T01:43:33.425Z,946.6
2022-12-11T01:44:35.450Z,946.6
2022-12-11T01:45:37.459Z,946.6
2022-12-11T01:46:39.433Z,946.6
2022-12-11T01:47:42.414Z,946.57
2022-12-11T01:48:44.437Z,946.59
2022-12-11T01:49:46.438Z,946.59
2022-12-11T01:50:48.420Z,946.61
2022-12-11T01:51:50.430Z,946.6
2022-12-11T01:52:52.443Z,946.61
2022-12-11T01:53:54.621Z,946.61
2022-12-11T01:54:56.441Z,946.58
2022-12-11T01:55:58.430Z,946.57
2022-12-11T01:57:00.435Z,946.56
2022-12-11T01:58:02.430Z,946.56
2022-12-11T01:59:04.430Z,946.59
2022-12-11T02:00:06.442Z,946.58
2022-12-11T02:01:08.466Z,946.57
2022-12-11T02:02:10.457Z,946.55
2022-12-11T02:03:12.431Z,946.56
2022-12-11T02:04:14.439Z,946.56
2022-12-11T02:05:16.464Z,946.51
2022-12-11T02:06:20.432Z,946.49
2022-12-11T02:07:22.441Z,946.52
2022-12-11T02:08:24.524Z,946.51
2022-12-11T02:09:26.458Z,946.5
2022-12-11T02:10:28.447Z,946.54
2022-12-11T02:11:31.435Z,946.54
2022-12-11T02:12:33.443Z,946.52
2022-12-11T02:13:36.440Z,946.53
2022-12-11T02:14:38.441Z,946.49
2022-12-11T02:15:40.477Z,946.49
2022-12-11T02:16:42.499Z,946.47
2022-12-11T02:17:44.474Z,946.5
2022-12-11T02:18:46.442Z,946.5
2022-12-11T02:19:48.446Z,946.47
2022-12-11T02:20:50.446Z,946.5
2022-12-11T02:21:52.453Z,946.53
2022-12-11T02:22:54.473Z,946.52
2022-12-11T02:23:56.451Z,946.57
2022-12-11T02:24:58.489Z,946.54
2022-12-11T02:26:00.827Z,946.57
2022-12-11T02:27:02.450Z,946.5
2022-12-11T02:28:04.499Z,946.49
2022-12-11T02:29:06.446Z,946.49
2022-12-11T02:30:08.457Z,946.48
2022-12-11T02:31:10.534Z,946.47
2022-12-11T02:32:12.452Z,946.43
2022-12-11T02:33:14.503Z,946.43
2022-12-11T02:34:16.467Z,946.42
2022-12-11T02:35:20.472Z,946.37
2022-12-11T02:36:23.455Z,946.42
2022-12-11T02:37:25.449Z,946.38
2022-12-11T02:38:27.472Z,946.37
2022-12-11T02:39:29.457Z,946.39
2022-12-11T02:40:31.462Z,946.35
2022-12-11T02:41:33.454Z,946.36
2022-12-11T02:42:35.514Z,946.35
2022-12-11T02:43:37.458Z,946.37
2022-12-11T02:45:41.509Z,946.41
2022-12-11T02:46:43.462Z,946.41
2022-12-11T02:47:45.453Z,946.38
2022-12-11T02:48:47.502Z,946.37
2022-12-11T02:49:49.461Z,946.39
2022-12-11T02:50:51.463Z,946.37
2022-12-11T02:51:53.492Z,946.42
2022-12-11T02:52:55.460Z,946.38
2022-12-11T02:53:57.493Z,946.41
2022-12-11T02:54:59.461Z,946.39
2022-12-11T02:56:01.489Z,946.38
2022-12-11T02:57:03.476Z,946.42
2022-12-11T02:58:05.465Z,946.41
2022-12-11T02:59:07.506Z,946.4
2022-12-11T03:00:09.542Z,946.39
2022-12-11T03:01:11.480Z,946.41
2022-12-11T03:02:13.569Z,946.4
2022-12-11T03:03:16.489Z,946.39
2022-12-11T03:04:20.486Z,946.38
2022-12-11T03:05:22.468Z,946.42
2022-12-11T03:06:24.472Z,946.38
2022-12-11T03:07:26.496Z,946.39
2022-12-11T03:08:28.502Z,946.41
2022-12-11T03:09:30.470Z,946.4
2022-12-11T03:10:32.477Z,946.39
2022-12-11T03:11:34.465Z,946.4
2022-12-11T03:12:36.496Z,946.39
2022-12-11T03:13:38.469Z,946.36
2022-12-11T03:14:40.469Z,946.38
2022-12-11T03:15:42.503Z,946.39
2022-12-11T03:16:44.496Z,946.38
2022-12-11T03:17:46.496Z,946.37
2022-12-11T03:18:48.470Z,946.38
2022-12-11T03:19:50.511Z,946.35
2022-12-11T03:20:52.506Z,946.38
2022-12-11T03:21:54.480Z,946.4
2022-12-11T03:22:56.473Z,946.4
2022-12-11T03:23:58.476Z,946.39
2022-12-11T03:25:00.499Z,946.42
2022-12-11T03:26:02.517Z,946.39
2022-12-11T03:27:08.097Z,946.39
2022-12-11T03:28:06.520Z,946.4
2022-12-11T03:29:08.479Z,946.41
2022-12-11T03:30:10.517Z,946.41
2022-12-11T03:31:13.580Z,946.37
2022-12-11T03:32:16.495Z,946.43
2022-12-11T03:33:20.486Z,946.38
2022-12-11T03:34:23.488Z,946.4
2022-12-11T03:35:25.506Z,946.39
2022-12-11T03:36:27.491Z,946.36
2022-12-11T03:37:29.488Z,946.37
2022-12-11T03:38:31.510Z,946.4
2022-12-11T03:39:33.490Z,946.37
2022-12-11T03:40:35.496Z,946.4
2022-12-11T03:41:38.490Z,946.36
2022-12-11T03:42:40.727Z,946.39
2022-12-11T03:43:42.501Z,946.39
2022-12-11T03:44:44.491Z,946.39
2022-12-11T03:45:46.544Z,946.39
2022-12-11T03:46:48.488Z,946.37
2022-12-11T03:47:50.488Z,946.39
2022-12-11T03:48:52.533Z,946.36
2022-12-11T03:49:54.493Z,946.38
2022-12-11T03:50:57.533Z,946.42
2022-12-11T03:51:59.545Z,946.42
2022-12-11T03:53:01.498Z,946.43
2022-12-11T03:54:03.510Z,946.42
2022-12-11T03:55:05.495Z,946.45
2022-12-11T03:56:07.514Z,946.46
2022-12-11T03:57:09.500Z,946.43
2022-12-11T03:58:11.524Z,946.45
2022-12-11T03:59:13.511Z,946.48
2022-12-11T04:00:16.510Z,946.49
2022-12-11T04:01:19.499Z,946.48
2022-12-11T04:02:21.501Z,946.49
2022-12-11T04:03:23.490Z,946.47
2022-12-11T04:04:25.605Z,946.46
2022-12-11T04:05:27.499Z,946.49
2022-12-11T04:06:29.528Z,946.51
2022-12-11T04:07:31.526Z,946.51
2022-12-11T04:08:34.496Z,946.51
2022-12-11T04:09:36.495Z,946.53
2022-12-11T04:10:38.495Z,946.52
2022-12-11T04:11:40.502Z,946.57
2022-12-11T04:12:43.507Z,946.53
2022-12-11T04:13:45.504Z,946.55
2022-12-11T04:14:47.505Z,946.53
2022-12-11T04:15:49.609Z,946.54
2022-12-11T04:16:51.508Z,946.55
2022-12-11T04:17:53.519Z,946.57
2022-12-11T04:18:55.537Z,946.51
2022-12-11T04:19:57.505Z,946.54
2022-12-11T04:20:59.511Z,946.52
2022-12-11T04:22:01.507Z,946.51
2022-12-11T04:23:03.512Z,946.51
2022-12-11T04:24:05.510Z,946.5
2022-12-11T04:25:07.695Z,946.49
2022-12-11T04:26:09.507Z,946.51
2022-12-11T04:27:11.509Z,946.54
2022-12-11T04:28:13.518Z,946.53
2022-12-11T04:29:16.552Z,946.52
2022-12-11T04:30:19.522Z,946.5
2022-12-11T04:32:23.514Z,946.45
2022-12-11T04:33:25.538Z,946.47
2022-12-11T04:34:27.526Z,946.45
2022-12-11T04:35:29.513Z,946.45
2022-12-11T04:36:31.523Z,946.45
2022-12-11T04:37:33.538Z,946.47
2022-12-11T04:38:35.545Z,946.45
2022-12-11T04:39:37.516Z,946.42
2022-12-11T04:40:40.522Z,946.43
2022-12-11T04:41:42.530Z,946.38
2022-12-11T04:42:45.546Z,946.41
2022-12-11T04:43:47.546Z,946.42
2022-12-11T04:44:49.510Z,946.42
2022-12-11T04:45:51.521Z,946.41
2022-12-11T04:46:54.521Z,946.39
2022-12-11T04:48:58.548Z,946.38
2022-12-11T04:50:01.333Z,946.36
2022-12-11T04:51:03.515Z,946.35
2022-12-11T04:52:05.539Z,946.34
2022-12-11T04:53:07.557Z,946.36
2022-12-11T04:54:09.577Z,946.3
2022-12-11T04:55:11.673Z,946.34
2022-12-11T04:56:13.529Z,946.31
2022-12-11T04:57:16.554Z,946.3
2022-12-11T04:58:19.533Z,946.27
2022-12-11T04:59:21.565Z,946.25
2022-12-11T05:00:23.542Z,946.26
2022-12-11T05:01:25.589Z,946.24
2022-12-11T05:02:27.590Z,946.22
2022-12-11T05:03:29.574Z,946.24
2022-12-11T05:04:31.561Z,946.24
2022-12-11T05:05:33.532Z,946.25
2022-12-11T05:06:35.538Z,946.28
2022-12-11T05:07:37.527Z,946.26
2022-12-11T05:08:39.543Z,946.25
2022-12-11T05:09:41.528Z,946.27
2022-12-11T05:10:49.864Z,946.25
2022-12-11T05:11:45.527Z,946.26
2022-12-11T05:12:47.555Z,946.24
2022-12-11T05:13:49.531Z,946.26
2022-12-11T05:14:51.534Z,946.25
2022-12-11T05:15:53.575Z,946.22
2022-12-11T05:16:55.530Z,946.21
2022-12-11T05:17:57.567Z,946.24
2022-12-11T05:18:59.605Z,946.22
2022-12-11T05:20:01.538Z,946.22
2022-12-11T05:21:03.563Z,946.23
2022-12-11T05:22:05.548Z,946.23
2022-12-11T05:23:07.566Z,946.25
2022-12-11T05:24:09.547Z,946.23
2022-12-11T05:25:11.698Z,946.24
2022-12-11T05:26:13.550Z,946.24
2022-12-11T05:27:16.565Z,946.22
2022-12-11T05:28:19.553Z,946.21
2022-12-11T05:29:21.551Z,946.19
2022-12-11T05:30:23.550Z,946.2
2022-12-11T05:31:25.609Z,946.2
2022-12-11T05:32:27.553Z,946.19
2022-12-11T05:33:29.577Z,946.18
2022-12-11T05:34:31.592Z,946.17
2022-12-11T05:35:34.550Z,946.17
2022-12-11T05:36:36.556Z,946.16
2022-12-11T05:37:38.546Z,946.12
2022-12-11T05:38:40.583Z,946.15
2022-12-11T05:39:42.545Z,946.15
2022-12-11T05:40:44.563Z,946.14
2022-12-11T05:41:46.547Z,946.15
2022-12-11T05:42:48.552Z,946.14
2022-12-11T05:43:50.588Z,946.16
2022-12-11T05:44:52.546Z,946.12
2022-12-11T05:45:54.547Z,946.13
2022-12-11T05:46:56.600Z,946.13
2022-12-11T05:47:58.550Z,946.15
2022-12-11T05:49:00.570Z,946.13
2022-12-11T05:50:02.575Z,946.15
2022-12-11T05:51:04.570Z,946.14
2022-12-11T05:52:06.550Z,946.12
2022-12-11T05:53:08.566Z,946.12
2022-12-11T05:54:10.557Z,946.12
2022-12-11T05:55:12.834Z,946.13
2022-12-11T05:56:14.563Z,946.14
2022-12-11T05:57:16.583Z,946.12
2022-12-11T05:58:20.604Z,946.15
2022-12-11T05:59:22.567Z,946.12
2022-12-11T06:00:25.552Z,946.1
2022-12-11T06:01:27.560Z,946.14
2022-12-11T06:02:29.799Z,946.13
2022-12-11T06:03:31.553Z,946.11
2022-12-11T06:04:33.566Z,946.1
2022-12-11T06:05:35.636Z,946.05
2022-12-11T06:06:37.576Z,946.03
2022-12-11T06:07:39.600Z,946.05
2022-12-11T06:08:41.609Z,946.03
2022-12-11T06:09:43.572Z,946.04
2022-12-11T06:10:45.594Z,946.06
2022-12-11T06:11:47.567Z,946.08
2022-12-11T06:12:49.613Z,946.05
2022-12-11T06:13:51.576Z,946.04
2022-12-11T06:14:54.566Z,946.09
2022-12-11T06:15:56.587Z,946.09
2022-12-11T06:16:58.571Z,946.1
2022-12-11T06:18:00.583Z,946.09
2022-12-11T06:19:09.112Z,946.1
2022-12-11T06:20:04.569Z,946.13
2022-12-11T06:21:06.578Z,946.11
2022-12-11T06:22:08.580Z,946.11
2022-12-11T06:23:10.576Z,946.11
2022-12-11T06:24:12.586Z,946.11
2022-12-11T06:25:14.574Z,946.13
2022-12-11T06:26:16.591Z,946.16
2022-12-11T06:27:20.580Z,946.17
2022-12-11T06:28:22.617Z,946.2
2022-12-11T06:29:24.619Z,946.21
2022-12-11T06:30:39.655Z,946.24
2022-12-11T06:31:28.609Z,946.23
2022-12-11T06:32:30.610Z,946.22
2022-12-11T06:33:32.583Z,946.26
2022-12-11T06:34:34.575Z,946.24
2022-12-11T06:35:42.101Z,946.23
2022-12-11T06:36:38.582Z,946.23
2022-12-11T06:37:40.594Z,946.24
2022-12-11T06:38:42.591Z,946.22
2022-12-11T06:39:44.586Z,946.3
2022-12-11T06:41:07.723Z,946.25
2022-12-11T06:42:07.713Z,946.24
2022-12-11T06:43:52.665Z,946.29
2022-12-11T06:44:54.582Z,946.29
2022-12-11T06:46:02.092Z,946.28
2022-12-11T06:46:58.589Z,946.26
2022-12-11T06:48:00.600Z,946.27
2022-12-11T06:49:02.633Z,946.28
2022-12-11T06:50:04.600Z,946.28
2022-12-11T06:51:06.593Z,946.25
2022-12-11T06:52:11.513Z,946.26
2022-12-11T06:53:10.592Z,946.23
2022-12-11T06:54:12.620Z,946.25
2022-12-11T06:55:14.590Z,946.27
2022-12-11T06:56:16.613Z,946.26
2022-12-11T06:57:18.595Z,946.29
2022-12-11T06:58:20.596Z,946.28
2022-12-11T06:59:22.633Z,946.32
2022-12-11T07:00:24.598Z,946.31
2022-12-11T07:01:26.670Z,946.36
2022-12-11T07:02:28.688Z,946.36
2022-12-11T07:03:30.614Z,946.34
2022-12-11T07:04:32.599Z,946.36
2022-12-11T07:05:34.613Z,946.36
2022-12-11T07:06:36.600Z,946.38
2022-12-11T07:07:38.625Z,946.38
2022-12-11T07:08:40.642Z,946.38
2022-12-11T07:09:42.656Z,946.31
2022-12-11T07:10:44.600Z,946.27
2022-12-11T07:11:46.610Z,946.29
2022-12-11T07:12:48.600Z,946.31
2022-12-11T07:13:50.645Z,946.29
2022-12-11T07:14:52.627Z,946.31
2022-12-11T07:15:54.617Z,946.32
2022-12-11T07:17:07.743Z,946.35
2022-12-11T07:21:05.088Z,946.39
2022-12-11T07:24:27.373Z,946.41
2022-12-11T07:33:21.392Z,946.39
2022-12-11T07:38:33.763Z,946.42
2022-12-11T07:39:35.464Z,946.43
2022-12-11T07:40:37.461Z,946.44
2022-12-11T07:41:39.464Z,946.45
2022-12-11T07:42:45.799Z,946.42
2022-12-11T07:43:43.473Z,946.44
2022-12-11T07:44:46.465Z,946.45
2022-12-11T07:45:48.487Z,946.45
2022-12-11T07:46:50.465Z,946.44
2022-12-11T07:47:52.466Z,946.43
2022-12-11T07:48:55.493Z,946.45
2022-12-11T07:49:57.462Z,946.47
2022-12-11T07:51:00.954Z,946.49
2022-12-11T07:52:03.470Z,946.5
2022-12-11T07:53:05.469Z,946.48
2022-12-11T07:54:07.516Z,946.47
2022-12-11T07:55:09.852Z,946.47
2022-12-11T07:57:14.528Z,946.46
2022-12-11T07:58:16.124Z,946.46
2022-12-11T07:59:18.124Z,946.42
2022-12-11T08:00:20.131Z,946.42
2022-12-11T08:01:22.210Z,946.44
2022-12-11T08:02:24.173Z,946.45
2022-12-11T08:03:26.140Z,946.49
2022-12-11T08:04:28.131Z,946.5
2022-12-11T08:05:30.131Z,946.52
2022-12-11T08:06:32.132Z,946.53
2022-12-11T08:07:34.168Z,946.53
2022-12-11T08:08:37.133Z,946.57
2022-12-11T08:09:39.184Z,946.53
2022-12-11T08:11:07.771Z,946.59
2022-12-11T08:13:47.189Z,946.58
2022-12-11T08:14:49.139Z,946.56
2022-12-11T08:15:51.143Z,946.53
2022-12-11T08:16:53.231Z,946.57
2022-12-11T08:18:03.445Z,946.55
2022-12-11T08:18:58.173Z,946.54
2022-12-11T08:20:00.149Z,946.53
2022-12-11T08:21:02.145Z,946.54
2022-12-11T08:22:04.135Z,946.56
2022-12-11T08:23:06.147Z,946.5
2022-12-11T08:24:08.171Z,946.54
2022-12-11T08:25:10.581Z,946.58
2022-12-11T08:27:21.510Z,946.53
2022-12-11T08:28:16.140Z,946.54
2022-12-11T08:29:18.156Z,946.55
2022-12-11T08:30:20.171Z,946.55
2022-12-11T08:31:22.182Z,946.61
2022-12-11T08:32:24.149Z,946.6
2022-12-11T08:33:26.192Z,946.6
2022-12-11T08:34:29.155Z,946.58
2022-12-11T08:35:31.157Z,946.56
2022-12-11T08:36:33.152Z,946.57
2022-12-11T08:37:35.153Z,946.59
2022-12-11T08:38:37.183Z,946.53
2022-12-11T08:39:39.216Z,946.56
2022-12-11T08:40:42.206Z,946.55
2022-12-11T08:41:44.155Z,946.58
2022-12-11T08:42:46.160Z,946.56
2022-12-11T08:45:03.533Z,946.58
2022-12-11T08:46:23.110Z,946.5
2022-12-11T08:47:07.793Z,946.54
2022-12-11T08:48:09.461Z,946.54
2022-12-11T08:49:07.796Z,946.55
2022-12-11T08:50:07.820Z,946.55
2022-12-11T08:52:08.156Z,946.54
2022-12-11T08:53:21.482Z,946.52
2022-12-11T08:55:14.091Z,946.53
2022-12-11T08:56:15.873Z,946.51
2022-12-11T08:57:17.916Z,946.55
2022-12-11T08:58:19.877Z,946.53
2022-12-11T08:59:21.898Z,946.51
2022-12-11T09:00:23.882Z,946.49
2022-12-11T09:01:26.009Z,946.5
2022-12-11T09:02:27.977Z,946.48
2022-12-11T09:03:29.885Z,946.48
2022-12-11T09:04:31.885Z,946.48
2022-12-11T09:06:36.895Z,946.48
2022-12-11T09:07:38.928Z,946.46
2022-12-11T09:09:43.415Z,946.48
2022-12-11T09:10:45.454Z,946.52
2022-12-11T09:11:47.519Z,946.49
2022-12-11T09:12:49.575Z,946.49
2022-12-11T09:13:51.427Z,946.48
2022-12-11T09:20:00.484Z,946.57
2022-12-11T09:21:02.234Z,946.55
2022-12-11T09:22:04.239Z,946.54
2022-12-11T09:23:06.282Z,946.52
2022-12-11T09:24:08.237Z,946.5
2022-12-11T09:25:10.551Z,946.54
2022-12-11T09:26:12.232Z,946.52
2022-12-11T09:27:14.439Z,946.51
2022-12-11T09:28:16.234Z,946.54
2022-12-11T09:29:19.249Z,946.55
2022-12-11T09:31:24.323Z,946.55
2022-12-11T09:32:26.260Z,946.55
2022-12-11T09:33:28.282Z,946.55
2022-12-11T09:34:30.236Z,946.55
2022-12-11T09:35:32.242Z,946.57
2022-12-11T09:36:34.239Z,946.55
2022-12-11T09:37:36.257Z,946.52
2022-12-11T09:38:38.240Z,946.48
2022-12-11T09:39:40.248Z,946.5
2022-12-11T09:40:42.292Z,946.46
2022-12-11T09:41:44.251Z,946.44
2022-12-11T09:42:46.258Z,946.46
2022-12-11T09:44:07.820Z,946.39
2022-12-11T09:47:07.870Z,946.3
2022-12-11T09:48:07.866Z,946.26
2022-12-11T09:49:07.823Z,946.25
2022-12-11T09:50:07.821Z,946.18
2022-12-11T09:51:08.333Z,946.22
2022-12-11T09:52:10.163Z,946.34
2022-12-11T09:53:21.562Z,946.32
2022-12-11T09:54:14.156Z,946.3
2022-12-11T09:55:16.124Z,946.28
2022-12-11T09:56:18.168Z,946.26
2022-12-11T09:57:33.508Z,946.27
2022-12-11T09:58:22.201Z,946.26
2022-12-11T09:59:24.209Z,946.26
2022-12-11T10:00:27.210Z,946.31
2022-12-11T10:01:29.235Z,946.27
2022-12-11T10:02:31.191Z,946.3
2022-12-11T10:03:33.241Z,946.31
2022-12-11T10:05:37.169Z,946.3
2022-12-11T10:06:41.182Z,946.31
2022-12-11T10:07:44.261Z,946.31
2022-12-11T10:08:46.198Z,946.32
2022-12-11T10:09:48.168Z,946.29
2022-12-11T10:10:50.164Z,946.3
2022-12-11T10:11:56.348Z,946.28
2022-12-11T10:12:54.169Z,946.29
2022-12-11T10:13:56.204Z,946.3
2022-12-11T10:14:58.246Z,946.3
2022-12-11T10:16:00.574Z,946.28
2022-12-11T10:17:02.176Z,946.3
2022-12-11T10:18:05.356Z,946.31
2022-12-11T10:19:06.185Z,946.35
2022-12-11T10:20:09.170Z,946.33
2022-12-11T10:21:11.181Z,946.31
2022-12-11T10:22:13.177Z,946.27
2022-12-11T10:23:15.170Z,946.29
2022-12-11T10:25:19.215Z,946.27
2022-12-11T10:26:21.180Z,946.3
2022-12-11T10:27:23.177Z,946.27
2022-12-11T10:30:34.332Z,946.27
2022-12-11T10:31:32.879Z,946.29
2022-12-11T10:37:17.647Z,946.34
2022-12-11T10:38:07.859Z,946.33
2022-12-11T10:39:07.851Z,946.35
2022-12-11T10:40:07.853Z,946.33
2022-12-11T10:41:10.324Z,946.34
2022-12-11T10:42:12.337Z,946.34
2022-12-11T10:43:14.351Z,946.4
2022-12-11T10:44:16.369Z,946.37
2022-12-11T10:45:18.459Z,946.34
2022-12-11T10:46:20.407Z,946.36
2022-12-11T10:47:22.343Z,946.33
2022-12-11T10:48:24.341Z,946.36
2022-12-11T10:49:26.371Z,946.35
2022-12-11T10:50:28.374Z,946.33
2022-12-11T10:51:31.367Z,946.33
2022-12-11T10:52:33.356Z,946.31
2022-12-11T10:54:08.448Z,946.3
2022-12-11T10:54:37.393Z,946.29
2022-12-11T10:55:39.413Z,946.26
2022-12-11T10:56:41.400Z,946.26
2022-12-11T10:57:43.403Z,946.32
2022-12-11T10:58:45.395Z,946.27
2022-12-11T10:59:47.483Z,946.28
2022-12-11T11:00:50.447Z,946.25
2022-12-11T11:01:52.443Z,946.25
2022-12-11T11:02:54.425Z,946.27
2022-12-11T11:03:56.406Z,946.27
2022-12-11T11:04:58.419Z,946.28
2022-12-11T11:06:00.548Z,946.29
2022-12-11T11:07:02.407Z,946.26
2022-12-11T11:08:04.479Z,946.23
2022-12-11T11:09:06.415Z,946.21
2022-12-11T11:10:08.658Z,946.18
2022-12-11T11:11:10.437Z,946.18
2022-12-11T11:12:12.411Z,946.16
2022-12-11T11:13:14.410Z,946.18
2022-12-11T11:14:16.408Z,946.2
2022-12-11T11:15:18.450Z,946.14
2022-12-11T11:16:20.496Z,946.15
2022-12-11T11:17:22.440Z,946.12
2022-12-11T11:18:24.408Z,946.12
2022-12-11T11:19:26.421Z,946.11
2022-12-11T11:20:28.418Z,946.1
2022-12-11T11:21:30.445Z,946.08
2022-12-11T11:22:32.414Z,946.07
2022-12-11T11:23:34.417Z,946.1
2022-12-11T11:24:37.414Z,946.06
2022-12-11T11:25:39.436Z,946.04
2022-12-11T11:27:11.566Z,946.05
2022-12-11T11:27:43.418Z,946.06
2022-12-11T11:28:57.574Z,946.03
2022-12-11T11:29:51.643Z,946.01
2022-12-11T11:30:49.511Z,945.99
2022-12-11T11:31:51.414Z,945.95
2022-12-11T11:32:53.438Z,945.96
2022-12-11T11:33:55.428Z,945.97
2022-12-11T11:34:57.423Z,945.97
2022-12-11T11:35:59.431Z,945.93
2022-12-11T11:37:01.420Z,945.92
2022-12-11T11:38:03.484Z,945.95
2022-12-11T11:39:06.431Z,945.94
2022-12-11T11:40:21.679Z,945.93
2022-12-11T11:41:14.747Z,945.96
2022-12-11T11:42:12.417Z,945.93
2022-12-11T11:43:14.449Z,945.92
2022-12-11T11:44:17.458Z,945.85
2022-12-11T11:45:19.451Z,945.82
2022-12-11T11:46:21.500Z,945.82
2022-12-11T11:47:23.432Z,945.79
2022-12-11T11:48:25.431Z,945.78
2022-12-11T11:49:27.488Z,945.78
2022-12-11T11:50:29.422Z,945.72
2022-12-11T11:51:31.431Z,945.71
2022-12-11T11:52:33.429Z,945.67
2022-12-11T11:53:35.433Z,945.68
2022-12-11T11:54:37.472Z,945.68
2022-12-11T11:55:39.478Z,945.67
2022-12-11T11:56:41.462Z,945.68
2022-12-11T11:57:43.454Z,945.66
2022-12-11T11:58:45.438Z,945.65
2022-12-11T11:59:47.435Z,945.64
2022-12-11T12:00:49.520Z,945.6
2022-12-11T12:01:51.439Z,945.59
2022-12-11T12:02:53.500Z,945.6
2022-12-11T12:03:55.438Z,945.56
2022-12-11T12:04:57.485Z,945.56
2022-12-11T12:05:59.482Z,945.56
2022-12-11T12:07:01.441Z,945.53
2022-12-11T12:08:03.563Z,945.52
2022-12-11T12:09:05.442Z,945.5
2022-12-11T12:10:08.734Z,945.53
2022-12-11T12:11:10.446Z,945.52
2022-12-11T12:12:12.457Z,945.51
2022-12-11T12:13:47.631Z,945.52
2022-12-11T12:14:50.655Z,945.5
2022-12-11T12:15:19.449Z,945.51
2022-12-11T12:16:50.959Z,945.49
2022-12-11T12:17:23.522Z,945.45
2022-12-11T12:18:25.448Z,945.47
2022-12-11T12:19:27.472Z,945.45
2022-12-11T12:20:29.455Z,945.47
2022-12-11T12:21:31.470Z,945.47
2022-12-11T12:22:33.454Z,945.45
2022-12-11T12:23:37.246Z,945.51
2022-12-11T12:24:38.494Z,945.49
2022-12-11T12:25:40.464Z,945.52
2022-12-11T12:26:42.456Z,945.51
2022-12-11T12:27:52.387Z,945.51
2022-12-11T12:28:47.456Z,945.49
2022-12-11T12:29:49.461Z,945.46
2022-12-11T12:30:52.481Z,945.47
2022-12-11T12:31:54.521Z,945.45
2022-12-11T12:32:56.545Z,945.42
2022-12-11T12:33:58.474Z,945.47
2022-12-11T12:35:00.455Z,945.45
2022-12-11T12:36:06.836Z,945.43
2022-12-11T12:38:06.651Z,945.35
2022-12-11T12:39:36.581Z,945.36
2022-12-11T12:41:08.312Z,945.3
2022-12-11T12:42:08.279Z,945.29
2022-12-11T12:43:08.282Z,945.3
2022-12-11T12:44:08.336Z,945.26
2022-12-11T12:45:08.500Z,945.27
2022-12-11T12:46:08.422Z,945.28
2022-12-11T12:47:21.583Z,945.3
2022-12-11T12:48:15.413Z,945.3
2022-12-11T12:49:08.518Z,945.3
2022-12-11T12:50:08.465Z,945.33
2022-12-11T12:51:08.636Z,945.32
2022-12-11T12:52:08.392Z,945.24
2022-12-11T12:53:08.452Z,945.24
2022-12-11T12:54:12.280Z,945.21
2022-12-11T12:55:08.838Z,945.24
2022-12-11T12:56:08.838Z,945.24
2022-12-11T12:57:08.374Z,945.24
2022-12-11T12:58:54.525Z,945.24
2022-12-11T12:59:56.837Z,945.22
2022-12-11T13:00:58.592Z,945.21
2022-12-11T13:03:03.477Z,945.21
2022-12-11T13:04:06.507Z,945.19
2022-12-11T13:05:08.915Z,945.22
2022-12-11T13:06:12.471Z,945.21
2022-12-11T13:07:15.489Z,945.2
2022-12-11T13:08:17.549Z,945.17
2022-12-11T13:09:19.709Z,945.17
2022-12-11T13:10:22.566Z,945.14
2022-12-11T13:11:24.469Z,945.13
2022-12-11T13:12:26.484Z,945.11
2022-12-11T13:13:28.482Z,945.11
2022-12-11T13:14:30.526Z,945.1
2022-12-11T13:15:32.480Z,945.09
2022-12-11T13:16:35.579Z,945.1
2022-12-11T13:17:37.719Z,945.08
2022-12-11T13:18:39.481Z,945.09
2022-12-11T13:19:42.885Z,945.09
2022-12-11T13:20:43.486Z,945.1
2022-12-11T13:21:57.560Z,945.13
2022-12-11T13:23:49.492Z,945.1
2022-12-11T13:24:51.481Z,945.09
2022-12-11T13:25:53.513Z,945.1
2022-12-11T13:26:55.484Z,945.14
2022-12-11T13:27:57.495Z,945.1
2022-12-11T13:28:59.526Z,945.07
2022-12-11T13:30:01.494Z,945.08
2022-12-11T13:31:03.485Z,945.13
2022-12-11T13:32:05.487Z,945.18
2022-12-11T13:33:08.723Z,945.18
2022-12-11T13:34:10.536Z,945.15
2022-12-11T13:35:13.123Z,945.17
2022-12-11T13:36:17.799Z,945.14
2022-12-11T13:37:16.497Z,945.12
2022-12-11T13:38:18.538Z,945.14
2022-12-11T13:39:20.489Z,945.14
2022-12-11T13:41:24.488Z,945.16
2022-12-11T13:42:27.527Z,945.15
2022-12-11T13:43:29.527Z,945.16
2022-12-11T13:44:31.503Z,945.19
2022-12-11T13:45:33.544Z,945.15
2022-12-11T13:46:35.525Z,945.19
2022-12-11T13:47:37.497Z,945.21
2022-12-11T13:48:39.527Z,945.19
2022-12-11T13:50:43.497Z,945.22
2022-12-11T13:52:08.434Z,945.21
2022-12-11T13:53:08.415Z,945.22